Time;durP1;ratioP1;P1;durP2;ratioP2;P2;SDS_P1;SDS_P2;PMS_P1;PMS_P2;Temp;Humidity;BMP_temperature;BMP_pressure;BME280_temperature;BME280_humidity;BME280_pressure;Samples;Min_cycle;Max_cycle;Signal;HPM_P1;HPM_P2
2024/03/25 00:02:09;;;;;;;19.07;3.33;;;7.00;99.90;;;;;;5017587;28;20675;-86
2024/03/25 00:04:35;;;;;;;24.50;3.63;;;7.00;99.90;;;;;;5017987;28;20934;-86
2024/03/25 00:07:05;;;;;;;27.58;3.67;;;7.00;99.90;;;;;;5000566;28;20178;-86
2024/03/25 00:09:30;;;;;;;22.88;5.07;;;7.00;99.90;;;;;;5021344;28;20182;-86
2024/03/25 00:11:56;;;;;;;21.90;4.33;;;6.90;99.90;;;;;;5003948;28;20213;-86
2024/03/25 00:14:22;;;;;;;16.63;2.80;;;6.90;99.90;;;;;;5021742;28;20253;-86
2024/03/25 00:16:48;;;;;;;23.08;3.47;;;7.00;99.90;;;;;;5003666;28;20182;-86
2024/03/25 00:19:14;;;;;;;16.67;3.20;;;7.00;99.90;;;;;;5021397;28;20194;-86
2024/03/25 00:21:39;;;;;;;19.58;3.05;;;7.00;99.90;;;;;;5021212;28;20206;-86
2024/03/25 00:24:05;;;;;;;23.87;3.13;;;7.00;99.90;;;;;;5003437;28;20209;-86
2024/03/25 00:26:31;;;;;;;17.90;3.17;;;6.90;99.90;;;;;;5021854;28;20578;-86
2024/03/25 00:28:57;;;;;;;20.27;3.20;;;6.90;99.90;;;;;;5021910;28;20167;-86
2024/03/25 00:31:22;;;;;;;19.70;3.10;;;6.80;99.90;;;;;;5021842;28;20225;-86
2024/03/25 00:33:48;;;;;;;17.20;2.43;;;6.80;99.90;;;;;;5021260;28;20217;-86
2024/03/25 00:36:14;;;;;;;21.27;2.47;;;6.70;99.90;;;;;;5021443;28;20648;-86
2024/03/25 00:38:39;;;;;;;17.10;2.67;;;6.80;99.90;;;;;;5003025;28;20198;-86
2024/03/25 00:41:05;;;;;;;19.87;3.47;;;6.60;99.90;;;;;;5002941;28;20194;-86
2024/03/25 00:43:30;;;;;;;17.47;3.10;;;6.70;99.90;;;;;;5003389;28;20655;-86
2024/03/25 00:45:56;;;;;;;19.30;3.57;;;6.60;99.90;;;;;;5003360;28;20170;-86
2024/03/25 00:48:22;;;;;;;18.60;4.30;;;6.60;99.90;;;;;;5020425;28;20639;-86
2024/03/25 00:50:48;;;;;;;19.90;3.35;;;6.60;99.90;;;;;;5020538;28;20186;-86
2024/03/25 00:53:14;;;;;;;22.77;4.80;;;6.60;99.90;;;;;;5020745;28;20539;-86
2024/03/25 00:55:40;;;;;;;18.90;3.53;;;6.60;99.90;;;;;;5003253;28;20496;-86
2024/03/25 00:58:06;;;;;;;19.60;3.35;;;6.70;99.90;;;;;;5020086;28;20194;-86
2024/03/25 01:00:32;;;;;;;20.00;3.43;;;6.60;99.90;;;;;;5002701;28;20536;-86
2024/03/25 01:02:57;;;;;;;20.10;3.43;;;6.70;99.90;;;;;;5002543;28;20163;-86
2024/03/25 01:05:23;;;;;;;19.60;3.30;;;6.60;99.90;;;;;;5020390;28;20170;-86
2024/03/25 01:07:49;;;;;;;18.00;3.10;;;6.70;99.90;;;;;;5002552;28;20179;-86
2024/03/25 01:10:16;;;;;;;20.10;3.90;;;6.70;99.90;;;;;;5020627;28;20144;-86
2024/03/25 01:12:42;;;;;;;21.50;3.25;;;6.70;99.90;;;;;;5002242;28;20310;-86
2024/03/25 01:15:09;;;;;;;28.10;3.40;;;6.70;99.90;;;;;;5017719;28;20163;-85
2024/03/25 01:17:36;;;;;;;24.42;3.22;;;6.70;99.90;;;;;;4999603;28;20417;-85
2024/03/25 01:20:02;;;;;;;18.55;2.95;;;6.70;99.90;;;;;;4998073;28;20202;-85
2024/03/25 01:22:27;;;;;;;20.00;2.50;;;6.70;99.90;;;;;;4999929;28;20194;-84
2024/03/25 01:24:53;;;;;;;19.70;3.07;;;6.70;99.90;;;;;;5017030;28;20536;-84
2024/03/25 01:27:19;;;;;;;16.10;2.53;;;6.70;99.90;;;;;;4999191;28;20171;-84
2024/03/25 01:29:45;;;;;;;20.38;3.17;;;6.70;99.90;;;;;;5016654;28;20179;-84
2024/03/25 01:32:10;;;;;;;22.03;3.90;;;6.60;99.90;;;;;;4999157;28;20217;-84
2024/03/25 01:34:36;;;;;;;19.60;2.70;;;6.60;99.90;;;;;;4999122;28;20636;-84
2024/03/25 01:37:01;;;;;;;21.50;3.30;;;6.60;99.90;;;;;;4998927;28;20174;-84
2024/03/25 01:39:27;;;;;;;23.13;3.30;;;6.60;99.90;;;;;;5016591;28;20711;-84
2024/03/25 01:41:53;;;;;;;27.07;2.73;;;6.60;99.90;;;;;;5016361;28;20182;-85
2024/03/25 01:44:18;;;;;;;25.13;3.13;;;6.60;99.90;;;;;;5016512;28;20251;-84
2024/03/25 01:46:44;;;;;;;17.63;2.80;;;6.60;99.90;;;;;;5016612;28;20663;-84
2024/03/25 01:49:11;;;;;;;24.80;3.53;;;6.60;99.90;;;;;;4998672;28;20664;-85
2024/03/25 01:51:37;;;;;;;20.98;2.92;;;6.50;99.90;;;;;;5016151;28;20437;-84
2024/03/25 01:54:04;;;;;;;14.73;2.75;;;6.50;99.90;;;;;;5016328;28;20174;-85
2024/03/25 01:56:35;;;;;;;20.73;2.90;;;6.50;99.90;;;;;;4998570;28;20217;-84
2024/03/25 01:59:01;;;;;;;16.30;3.78;;;6.50;99.90;;;;;;4998246;28;20221;-84
2024/03/25 02:01:28;;;;;;;21.73;3.67;;;6.50;99.90;;;;;;4998301;28;20564;-84
2024/03/25 02:03:55;;;;;;;18.50;4.30;;;6.40;99.90;;;;;;5016015;28;20167;-84
2024/03/25 02:06:22;;;;;;;16.58;3.35;;;6.40;99.90;;;;;;5015942;28;20246;-84
2024/03/25 02:08:49;;;;;;;16.50;2.47;;;6.30;99.90;;;;;;5015521;28;20186;-84
2024/03/25 02:11:16;;;;;;;30.27;3.38;;;6.30;99.90;;;;;;5015659;28;20328;-84
2024/03/25 02:13:41;;;;;;;17.85;2.50;;;6.30;99.90;;;;;;5015471;28;20162;-84
2024/03/25 02:16:07;;;;;;;19.20;2.60;;;6.30;99.90;;;;;;4997914;28;20305;-84
2024/03/25 02:18:33;;;;;;;23.17;4.07;;;6.30;99.90;;;;;;4997742;28;20190;-84
2024/03/25 02:21:00;;;;;;;20.45;3.53;;;6.20;99.90;;;;;;4997625;28;20457;-84
2024/03/25 02:23:27;;;;;;;22.58;2.70;;;6.20;99.90;;;;;;5015087;28;20659;-84
2024/03/25 02:25:53;;;;;;;22.85;3.85;;;6.20;99.90;;;;;;5015646;28;20246;-84
2024/03/25 02:28:19;;;;;;;18.75;3.05;;;6.20;99.90;;;;;;5016031;28;20181;-85
2024/03/25 02:30:45;;;;;;;23.50;4.22;;;6.10;99.90;;;;;;5018002;28;20185;-86
2024/03/25 02:33:11;;;;;;;18.80;2.70;;;6.10;99.90;;;;;;5001363;28;20257;-85
2024/03/25 02:35:39;;;;;;;22.53;2.73;;;6.10;99.90;;;;;;5019067;28;20253;-86
2024/03/25 02:38:05;;;;;;;21.17;3.30;;;6.10;99.90;;;;;;5018179;28;20187;-86
2024/03/25 02:40:31;;;;;;;16.83;3.17;;;6.10;99.90;;;;;;5018192;28;20592;-85
2024/03/25 02:42:57;;;;;;;18.80;3.17;;;6.10;99.90;;;;;;5018308;28;20911;-86
2024/03/25 02:45:23;;;;;;;20.80;2.80;;;6.10;99.90;;;;;;5018456;28;20178;-85
2024/03/25 02:47:50;;;;;;;18.90;3.07;;;6.00;99.90;;;;;;5018256;28;20158;-86
2024/03/25 02:50:15;;;;;;;24.80;2.53;;;6.00;99.90;;;;;;5018358;28;20232;-86
2024/03/25 02:52:41;;;;;;;16.73;2.50;;;6.00;99.90;;;;;;5017806;28;20269;-85
2024/03/25 02:55:07;;;;;;;16.00;2.53;;;6.00;99.90;;;;;;5000539;28;20655;-85
2024/03/25 02:57:33;;;;;;;22.40;3.17;;;5.90;99.90;;;;;;5017918;28;20213;-85
2024/03/25 02:59:58;;;;;;;17.20;2.90;;;6.00;99.90;;;;;;5016379;28;20233;-84
2024/03/25 03:02:24;;;;;;;17.87;4.07;;;5.90;99.90;;;;;;4997007;28;20217;-84
2024/03/25 03:04:49;;;;;;;25.10;3.73;;;5.80;99.90;;;;;;5015181;28;20548;-84
2024/03/25 03:07:15;;;;;;;23.00;3.47;;;5.80;99.90;;;;;;5014568;28;20643;-84
2024/03/25 03:09:41;;;;;;;27.87;3.73;;;5.90;99.90;;;;;;4996972;28;20221;-84
2024/03/25 03:12:07;;;;;;;24.30;3.27;;;5.90;99.90;;;;;;5014649;28;20277;-84
2024/03/25 03:14:32;;;;;;;21.37;3.10;;;5.90;99.90;;;;;;5014599;28;20188;-84
2024/03/25 03:16:58;;;;;;;23.60;2.90;;;6.00;99.90;;;;;;4996937;28;20428;-84
2024/03/25 03:19:27;;;;;;;22.40;3.27;;;5.90;99.90;;;;;;4997336;28;20199;-84
2024/03/25 03:21:53;;;;;;;17.30;2.58;;;5.90;99.90;;;;;;4996620;28;20182;-84
2024/03/25 03:24:19;;;;;;;20.85;3.63;;;5.90;99.90;;;;;;5014588;28;20158;-84
2024/03/25 03:26:45;;;;;;;17.70;3.13;;;5.90;99.90;;;;;;5014346;28;20187;-84
2024/03/25 03:29:11;;;;;;;20.88;3.20;;;5.90;99.90;;;;;;5000812;28;20409;-85
2024/03/25 03:31:37;;;;;;;20.40;2.53;;;6.00;99.90;;;;;;5017659;28;20190;-86
2024/03/25 03:34:03;;;;;;;20.03;3.53;;;5.90;99.90;;;;;;5017747;28;20402;-86
2024/03/25 03:36:29;;;;;;;22.17;4.27;;;5.90;99.90;;;;;;5017747;28;20402;-85
2024/03/25 03:38:54;;;;;;;21.83;3.13;;;5.90;99.90;;;;;;5017774;28;20675;-85
2024/03/25 03:41:20;;;;;;;23.90;3.53;;;5.90;99.90;;;;;;5016580;28;20186;-85
2024/03/25 03:43:46;;;;;;;34.10;3.83;;;5.80;99.90;;;;;;5017113;28;20811;-86
2024/03/25 03:46:12;;;;;;;16.53;2.70;;;5.80;99.90;;;;;;4999675;28;20405;-86
2024/03/25 03:48:38;;;;;;;17.70;2.87;;;5.80;99.90;;;;;;5017348;28;20217;-85
2024/03/25 03:51:08;;;;;;;24.88;2.95;;;5.80;99.90;;;;;;5017549;28;20194;-86
2024/03/25 03:53:34;;;;;;;16.98;2.72;;;5.80;99.90;;;;;;4999507;28;20181;-85
2024/03/25 03:56:02;;;;;;;27.40;3.20;;;5.80;99.90;;;;;;5017380;28;20189;-86
2024/03/25 03:58:29;;;;;;;27.42;3.97;;;5.80;99.90;;;;;;5017480;28;20194;-85
2024/03/25 04:00:54;;;;;;;27.92;2.88;;;5.80;99.90;;;;;;4999122;28;20218;-85
2024/03/25 04:03:20;;;;;;;18.70;3.10;;;5.80;99.90;;;;;;5017572;28;20532;-86
2024/03/25 04:05:46;;;;;;;22.02;3.75;;;5.80;99.90;;;;;;5017411;28;20177;-85
2024/03/25 04:08:12;;;;;;;23.90;2.90;;;5.80;99.90;;;;;;4998932;28;20218;-85
2024/03/25 04:10:39;;;;;;;19.30;3.45;;;5.70;99.90;;;;;;5016904;28;20178;-86
2024/03/25 04:13:08;;;;;;;22.75;2.90;;;5.60;99.90;;;;;;4999638;28;20224;-85
2024/03/25 04:15:35;;;;;;;20.17;2.38;;;5.70;99.90;;;;;;4999046;28;20174;-85
2024/03/25 04:18:00;;;;;;;18.38;2.47;;;5.70;99.90;;;;;;4999024;28;20174;-85
2024/03/25 04:20:35;;;;;;;19.17;3.07;;;5.60;99.90;;;;;;4999549;28;20175;-85
2024/03/25 04:23:01;;;;;;;27.20;3.40;;;5.60;99.90;;;;;;5016655;28;20559;-85
2024/03/25 04:25:26;;;;;;;17.43;2.90;;;5.50;99.90;;;;;;5017040;28;20166;-85
2024/03/25 04:27:52;;;;;;;22.20;2.83;;;5.50;99.90;;;;;;5016697;28;20166;-85
2024/03/25 04:30:17;;;;;;;21.00;3.07;;;5.40;99.90;;;;;;5017008;28;20170;-86
2024/03/25 04:32:43;;;;;;;24.83;4.30;;;5.40;99.90;;;;;;5016910;28;20182;-85
2024/03/25 04:35:09;;;;;;;18.13;3.53;;;5.30;99.90;;;;;;5016754;28;20187;-85
2024/03/25 04:37:35;;;;;;;19.80;3.10;;;5.20;99.90;;;;;;5016575;28;20712;-85
2024/03/25 04:40:02;;;;;;;19.60;3.70;;;5.10;99.90;;;;;;5016383;28;20200;-85
2024/03/25 04:42:28;;;;;;;19.02;3.40;;;5.10;99.90;;;;;;4997590;28;20193;-84
2024/03/25 04:44:56;;;;;;;19.07;3.60;;;5.00;99.90;;;;;;5013864;28;20170;-84
2024/03/25 04:47:22;;;;;;;22.65;3.63;;;5.00;99.90;;;;;;5013814;28;20190;-84
2024/03/25 04:49:47;;;;;;;17.10;3.00;;;5.00;99.90;;;;;;4996217;28;20174;-84
2024/03/25 04:52:16;;;;;;;15.47;2.70;;;4.90;99.90;;;;;;4995991;28;20679;-83
2024/03/25 04:54:42;;;;;;;15.65;2.70;;;4.90;99.90;;;;;;5016544;28;20198;-83
2024/03/25 04:57:08;;;;;;;16.20;3.45;;;4.90;99.90;;;;;;4999751;28;20210;-84
2024/03/25 04:59:34;;;;;;;19.93;3.53;;;4.90;99.90;;;;;;5017069;28;20276;-84
2024/03/25 05:02:00;;;;;;;22.47;3.43;;;4.90;99.90;;;;;;4999468;28;20579;-84
2024/03/25 05:04:25;;;;;;;18.70;3.23;;;4.90;99.90;;;;;;4999772;28;20221;-84
2024/03/25 05:06:51;;;;;;;20.33;3.77;;;4.80;99.90;;;;;;4999312;28;20183;-84
2024/03/25 05:09:17;;;;;;;23.60;4.07;;;4.80;99.90;;;;;;4999289;28;20567;-84
2024/03/25 05:11:43;;;;;;;25.07;3.10;;;4.70;99.90;;;;;;5016729;28;20217;-84
2024/03/25 05:14:09;;;;;;;20.10;3.20;;;4.60;99.90;;;;;;4999281;28;20409;-85
2024/03/25 05:16:34;;;;;;;19.17;3.50;;;4.60;99.90;;;;;;4999294;28;20282;-84
2024/03/25 05:19:00;;;;;;;19.50;3.50;;;4.50;99.90;;;;;;4999189;28;20205;-84
2024/03/25 05:21:26;;;;;;;17.90;3.73;;;4.40;99.90;;;;;;4999228;28;20240;-84
2024/03/25 05:23:51;;;;;;;16.57;2.87;;;4.30;99.90;;;;;;5017392;28;20166;-85
2024/03/25 05:26:17;;;;;;;21.13;3.77;;;4.30;99.90;;;;;;5017327;28;20566;-85
2024/03/25 05:28:42;;;;;;;16.13;2.50;;;4.20;99.90;;;;;;5017237;28;20173;-84
2024/03/25 05:31:09;;;;;;;18.97;4.17;;;4.10;99.90;;;;;;4999278;28;20197;-84
2024/03/25 05:33:37;;;;;;;16.58;3.08;;;4.10;99.90;;;;;;5016978;28;20632;-84
2024/03/25 05:36:03;;;;;;;20.55;4.00;;;4.10;99.90;;;;;;4999093;28;20182;-84
2024/03/25 05:38:29;;;;;;;21.37;3.30;;;4.10;99.90;;;;;;4999205;28;20198;-84
2024/03/25 05:40:55;;;;;;;18.80;3.53;;;4.00;99.90;;;;;;5016506;28;20182;-84
2024/03/25 05:43:23;;;;;;;20.98;4.15;;;3.90;99.90;;;;;;5016841;28;20171;-84
2024/03/25 05:45:53;;;;;;;16.55;3.30;;;3.90;99.90;;;;;;5016652;28;20162;-84
2024/03/25 05:48:24;;;;;;;18.08;3.28;;;3.90;99.90;;;;;;5016831;28;20603;-84
2024/03/25 05:51:05;;;;;;;19.55;3.38;;;3.80;99.90;;;;;;5016436;28;20191;-84
2024/03/25 05:53:31;;;;;;;19.98;3.58;;;3.80;99.90;;;;;;5016495;28;20205;-84
2024/03/25 05:55:59;;;;;;;19.83;3.55;;;3.80;99.90;;;;;;5017278;28;20261;-85
2024/03/25 05:58:25;;;;;;;22.75;3.65;;;3.90;99.90;;;;;;5019039;28;20192;-85
2024/03/25 06:00:52;;;;;;;17.85;3.38;;;3.80;99.90;;;;;;5019442;28;20190;-85
2024/03/25 06:03:18;;;;;;;19.10;3.30;;;3.80;99.90;;;;;;5018903;28;20167;-85
2024/03/25 06:05:44;;;;;;;18.60;3.80;;;3.80;99.90;;;;;;5017769;28;20189;-85
2024/03/25 06:08:18;;;;;;;19.00;2.93;;;3.70;99.90;;;;;;5018561;28;20587;-85
2024/03/25 06:10:44;;;;;;;15.70;3.50;;;3.70;99.90;;;;;;5001183;28;20171;-85
2024/03/25 06:13:10;;;;;;;15.45;2.72;;;3.80;99.90;;;;;;5018174;28;20176;-85
2024/03/25 06:15:35;;;;;;;22.73;4.00;;;3.80;99.90;;;;;;5018715;28;20245;-85
2024/03/25 06:18:01;;;;;;;23.73;4.37;;;3.80;99.90;;;;;;5018743;28;20414;-85
2024/03/25 06:20:26;;;;;;;19.20;3.03;;;3.80;99.90;;;;;;5017978;28;20159;-85
2024/03/25 06:22:52;;;;;;;24.10;3.20;;;3.80;99.90;;;;;;5018546;28;20213;-85
2024/03/25 06:25:18;;;;;;;18.70;3.30;;;3.90;99.90;;;;;;5018503;28;20159;-85
2024/03/25 06:27:44;;;;;;;24.53;4.80;;;4.00;99.90;;;;;;5018378;28;20226;-85
2024/03/25 06:35:39;;;;;;;35.47;7.10;;;4.20;99.90;;;;;;5017903;28;20245;-85
2024/03/25 06:38:06;;;;;;;35.33;7.00;;;4.40;99.90;;;;;;5018179;28;20209;-85
2024/03/25 06:40:32;;;;;;;31.20;10.23;;;4.50;99.90;;;;;;5000080;28;20167;-85
2024/03/25 06:42:57;;;;;;;27.83;7.43;;;4.60;99.90;;;;;;5017905;28;20246;-85
2024/03/25 06:45:23;;;;;;;31.63;7.67;;;4.70;99.90;;;;;;5017709;28;20190;-85
2024/03/25 06:47:48;;;;;;;31.00;7.07;;;4.80;99.90;;;;;;5018072;28;20163;-85
2024/03/25 06:50:14;;;;;;;29.33;6.90;;;4.90;99.90;;;;;;5000188;28;20174;-85
2024/03/25 06:52:40;;;;;;;28.43;6.77;;;5.00;99.90;;;;;;5017835;28;20265;-85
2024/03/25 06:55:06;;;;;;;27.70;6.10;;;5.10;99.90;;;;;;5017742;28;20408;-85
2024/03/25 06:57:32;;;;;;;35.30;7.80;;;5.20;99.90;;;;;;5017441;28;20170;-85
2024/03/25 06:59:58;;;;;;;22.48;4.53;;;5.20;99.90;;;;;;4999852;28;20495;-85
2024/03/25 07:02:24;;;;;;;23.63;4.90;;;5.30;99.90;;;;;;5017161;28;20186;-85
2024/03/25 07:04:50;;;;;;;24.27;5.10;;;5.40;99.90;;;;;;5017237;28;20167;-85
2024/03/25 07:07:15;;;;;;;24.50;4.70;;;5.40;99.90;;;;;;4999235;28;20209;-85
2024/03/25 07:09:41;;;;;;;26.90;6.63;;;5.50;99.90;;;;;;5016027;28;20413;-85
2024/03/25 07:12:07;;;;;;;21.07;4.53;;;5.50;99.90;;;;;;5015223;28;20186;-84
2024/03/25 07:14:33;;;;;;;17.77;3.83;;;5.50;99.90;;;;;;5015213;28;20252;-84
2024/03/25 07:16:58;;;;;;;20.37;4.30;;;5.60;99.90;;;;;;4997091;28;20409;-84
2024/03/25 07:19:24;;;;;;;20.57;4.53;;;5.70;99.90;;;;;;5014151;28;20248;-84
2024/03/25 07:21:50;;;;;;;17.93;3.20;;;5.70;99.90;;;;;;4996699;28;20563;-84
2024/03/25 07:24:15;;;;;;;16.80;4.13;;;5.70;99.90;;;;;;5014248;28;20579;-84
2024/03/25 07:26:41;;;;;;;25.33;4.27;;;5.80;99.90;;;;;;5014378;28;20163;-84
2024/03/25 07:29:07;;;;;;;26.53;4.33;;;5.80;99.90;;;;;;5014192;28;20254;-84
2024/03/25 07:31:33;;;;;;;20.65;3.55;;;5.90;99.90;;;;;;5014212;28;20337;-83
2024/03/25 07:33:58;;;;;;;21.70;4.07;;;6.00;99.90;;;;;;5013904;28;20177;-85
2024/03/25 07:36:24;;;;;;;17.27;3.60;;;6.00;99.90;;;;;;5014012;28;20170;-84
2024/03/25 07:38:50;;;;;;;25.23;4.50;;;6.10;99.90;;;;;;4996251;28;20198;-84
2024/03/25 07:41:15;;;;;;;29.63;5.70;;;6.20;99.90;;;;;;5014251;28;20190;-84
2024/03/25 07:43:41;;;;;;;23.07;4.70;;;6.20;99.90;;;;;;5014039;28;20178;-85
2024/03/25 07:46:07;;;;;;;32.30;5.60;;;6.30;99.90;;;;;;5013973;28;20166;-85
2024/03/25 07:48:32;;;;;;;25.50;5.27;;;6.40;99.90;;;;;;4996172;28;20340;-84
2024/03/25 07:50:58;;;;;;;23.10;5.50;;;6.50;99.90;;;;;;5013439;28;20197;-84
2024/03/25 07:53:24;;;;;;;19.17;3.58;;;6.50;99.90;;;;;;5013781;28;20236;-84
2024/03/25 07:55:51;;;;;;;20.73;3.43;;;6.60;99.90;;;;;;5013403;28;20201;-85
2024/03/25 07:58:19;;;;;;;26.63;3.35;;;6.70;99.90;;;;;;5013245;28;20679;-84
2024/03/25 08:00:44;;;;;;;22.58;4.82;;;6.70;98.80;;;;;;5013392;28;20166;-85
2024/03/25 08:03:10;;;;;;;17.10;3.20;;;6.80;99.80;;;;;;4995647;28;20172;-84
2024/03/25 08:05:36;;;;;;;22.87;3.80;;;6.90;96.70;;;;;;5013450;28;20181;-84
2024/03/25 08:08:01;;;;;;;22.20;4.87;;;6.90;96.00;;;;;;4971563;28;1209813;-84
2024/03/25 08:10:28;;;;;;;24.40;7.77;;;7.00;95.50;;;;;;5014180;28;20190;-85
2024/03/25 08:12:54;;;;;;;22.27;5.70;;;7.00;94.10;;;;;;5014426;28;20150;-84
2024/03/25 08:15:19;;;;;;;26.40;4.57;;;7.00;94.70;;;;;;5014451;28;20162;-84
2024/03/25 08:17:45;;;;;;;18.80;4.70;;;7.10;93.00;;;;;;4996269;28;20712;-84
2024/03/25 08:20:11;;;;;;;16.67;4.00;;;7.10;91.70;;;;;;5013985;28;20279;-85
2024/03/25 08:22:36;;;;;;;26.50;6.45;;;7.20;89.20;;;;;;5015412;28;20182;-85
2024/03/25 08:25:03;;;;;;;19.40;4.80;;;7.30;87.20;;;;;;5014581;28;20221;-85
2024/03/25 08:27:29;;;;;;;22.75;4.35;;;7.40;81.70;;;;;;5014751;28;20241;-85
2024/03/25 08:29:54;;;;;;;20.10;4.30;;;7.50;75.80;;;;;;5017934;28;20187;-84
2024/03/25 08:32:20;;;;;;;20.97;3.70;;;7.50;62.70;;;;;;5000500;28;20202;-84
2024/03/25 08:34:46;;;;;;;21.87;3.73;;;7.50;56.70;;;;;;5019528;28;20225;-86
2024/03/25 08:37:12;;;;;;;24.92;4.20;;;7.60;57.90;;;;;;5020706;28;20540;-86
2024/03/25 08:39:37;;;;;;;19.20;3.53;;;7.70;52.60;;;;;;5020930;28;20186;-86
2024/03/25 08:42:03;;;;;;;21.67;3.87;;;7.70;34.00;;;;;;5002641;28;20244;-86
2024/03/25 08:44:29;;;;;;;23.13;3.40;;;7.70;38.40;;;;;;5002948;28;20265;-87
2024/03/25 08:46:54;;;;;;;22.07;4.00;;;7.80;37.40;;;;;;5020846;28;20413;-86
2024/03/25 08:49:20;;;;;;;21.33;3.60;;;7.80;35.40;;;;;;5020479;28;20159;-85
2024/03/25 08:51:46;;;;;;;26.60;5.67;;;7.80;39.60;;;;;;5020741;28;20190;-86
2024/03/25 08:54:11;;;;;;;23.47;2.33;;;7.80;33.00;;;;;;5020356;28;20217;-87
2024/03/25 08:56:37;;;;;;;19.43;3.23;;;7.80;20.40;;;;;;5002482;28;20159;-86
2024/03/25 08:59:03;;;;;;;20.33;3.73;;;7.90;10.10;;;;;;5020568;28;20190;-86
2024/03/25 09:01:30;;;;;;;23.07;4.10;;;8.00;5.20;;;;;;5020712;28;20183;-86
2024/03/25 09:03:56;;;;;;;21.48;4.15;;;8.00;6.00;;;;;;5002764;28;20213;-86
2024/03/25 09:06:21;;;;;;;22.40;4.60;;;8.10;1.00;;;;;;5020762;28;20163;-86
2024/03/25 09:11:32;;;;;;;18.38;4.38;;;8.20;1.00;;;;;;5020262;28;20560;-85
2024/03/25 09:13:57;;;;;;;21.92;5.28;;;8.20;1.00;;;;;;5002917;28;20170;-86
2024/03/25 09:16:23;;;;;;;26.70;4.70;;;8.30;1.00;;;;;;5020138;28;20166;-85
2024/03/25 09:18:49;;;;;;;17.90;3.20;;;8.30;1.00;;;;;;5018625;28;20317;-86
2024/03/25 09:21:14;;;;;;;22.17;3.37;;;8.30;1.00;;;;;;5001738;28;20182;-86
2024/03/25 09:23:40;;;;;;;20.03;3.37;;;8.30;1.00;;;;;;5019927;28;20579;-85
2024/03/25 09:26:06;;;;;;;16.27;3.60;;;8.30;1.00;;;;;;5019898;28;20213;-85
2024/03/25 09:28:31;;;;;;;16.33;2.40;;;8.30;1.00;;;;;;5019724;28;20624;-85
2024/03/25 09:30:57;;;;;;;25.10;4.80;;;8.40;1.00;;;;;;5019396;28;20193;-85
2024/03/25 09:33:23;;;;;;;25.27;4.60;;;8.50;1.00;;;;;;5019144;28;20182;-86
2024/03/25 09:35:51;;;;;;;20.00;3.42;;;8.50;1.00;;;;;;5001777;28;20175;-85
2024/03/25 09:38:17;;;;;;;15.73;2.95;;;8.50;1.00;;;;;;5001859;28;20194;-85
2024/03/25 09:40:42;;;;;;;19.50;3.50;;;8.60;1.00;;;;;;5018681;28;20181;-83
2024/03/25 09:43:25;;;;;;;20.63;3.70;;;8.80;1.00;;;;;;5019452;28;20154;-85
2024/03/25 09:45:52;;;;;;;22.20;4.07;;;8.90;1.00;;;;;;5019348;28;20179;-85
2024/03/25 09:48:22;;;;;;;21.00;3.60;;;8.90;1.00;;;;;;5001413;28;20174;-84
2024/03/25 09:50:49;;;;;;;21.00;3.70;;;9.00;1.00;;;;;;4998950;28;20281;-84
2024/03/25 09:53:15;;;;;;;18.15;3.33;;;9.10;1.00;;;;;;5016273;28;20190;-84
2024/03/25 09:55:41;;;;;;;19.07;2.97;;;9.20;1.00;;;;;;4999025;28;20167;-85
2024/03/25 09:58:07;;;;;;;19.35;3.35;;;9.40;1.00;;;;;;5017021;28;20217;-87
2024/03/25 10:00:33;;;;;;;19.65;3.47;;;9.50;1.00;;;;;;5018409;28;20678;-86
2024/03/25 10:02:59;;;;;;;20.63;4.60;;;9.70;1.00;;;;;;5018484;28;20206;-86
2024/03/25 10:05:25;;;;;;;24.60;3.00;;;9.90;1.00;;;;;;5018104;28;20441;-86
2024/03/25 10:07:50;;;;;;;24.63;2.97;;;10.00;1.00;;;;;;4999282;28;20182;-86
2024/03/25 10:10:22;;;;;;;23.03;3.23;;;10.20;1.00;;;;;;5015922;28;20448;-86
2024/03/25 10:12:48;;;;;;;17.33;3.22;;;10.30;1.00;;;;;;5015593;28;20187;-86
2024/03/25 10:15:17;;;;;;;16.73;2.17;;;10.70;1.00;;;;;;5016360;28;20217;-86
2024/03/25 10:17:44;;;;;;;15.77;3.13;;;10.90;1.00;;;;;;5016735;28;20217;-85
2024/03/25 10:20:17;;;;;;;18.10;3.10;;;11.00;1.00;;;;;;5000346;28;20194;-85
2024/03/25 10:22:44;;;;;;;16.73;2.63;;;11.20;1.00;;;;;;5018786;28;20664;-85
2024/03/25 10:25:31;;;;;;;22.75;3.28;;;11.50;1.00;;;;;;5000446;28;20173;-85
2024/03/25 10:28:01;;;;;;;17.65;2.60;;;11.70;1.00;;;;;;5016602;28;20213;-86
2024/03/25 10:30:27;;;;;;;17.83;2.90;;;11.70;1.00;;;;;;5016315;28;20254;-87
2024/03/25 10:33:06;;;;;;;16.45;1.95;;;12.10;1.00;;;;;;5016198;28;20310;-87
2024/03/25 10:35:37;;;;;;;17.45;2.78;;;12.20;1.00;;;;;;5015910;28;20163;-85
2024/03/25 10:38:13;;;;;;;20.13;2.50;;;11.80;1.00;;;;;;4999505;28;20169;-85
2024/03/25 10:40:40;;;;;;;20.98;2.28;;;11.80;1.00;;;;;;5000175;28;20174;-85
2024/03/25 10:43:13;;;;;;;20.25;1.88;;;12.00;1.00;;;;;;5016917;28;20163;-84
2024/03/25 10:45:47;;;;;;;20.23;2.05;;;12.40;1.00;;;;;;4999645;28;20226;-85
2024/03/25 10:48:16;;;;;;;15.70;2.42;;;12.20;1.00;;;;;;4999799;28;20228;-85
2024/03/25 10:50:46;;;;;;;14.75;2.30;;;12.20;1.00;;;;;;5016960;28;20540;-85
2024/03/25 10:53:13;;;;;;;18.23;2.60;;;12.50;1.00;;;;;;5017281;28;20174;-86
2024/03/25 10:55:40;;;;;;;22.05;2.45;;;12.80;1.00;;;;;;5017007;28;20194;-85
2024/03/25 10:58:08;;;;;;;16.08;2.33;;;12.70;1.00;;;;;;5017635;28;20170;-85
2024/03/25 11:00:35;;;;;;;17.48;2.20;;;12.50;1.00;;;;;;5017251;28;20170;-84
2024/03/25 11:03:01;;;;;;;14.27;2.13;;;12.30;1.00;;;;;;5019095;28;20163;-84
2024/03/25 11:05:27;;;;;;;15.75;2.20;;;12.00;1.00;;;;;;5017496;28;20170;-84
2024/03/25 11:07:52;;;;;;;16.67;2.40;;;12.10;1.00;;;;;;5017436;28;20246;-85
2024/03/25 11:10:18;;;;;;;20.67;1.83;;;12.00;1.00;;;;;;5017057;28;20477;-84
2024/03/25 11:12:45;;;;;;;15.07;1.93;;;11.90;1.00;;;;;;5017976;28;20182;-84
2024/03/25 11:15:11;;;;;;;22.55;2.22;;;12.00;1.00;;;;;;5017637;28;20165;-84
2024/03/25 11:17:47;;;;;;;17.00;2.03;;;12.40;1.00;;;;;;4999186;28;20651;-85
2024/03/25 11:20:18;;;;;;;18.67;2.53;;;12.90;1.00;;;;;;5018056;28;20580;-86
2024/03/25 11:22:52;;;;;;;14.82;1.95;;;12.80;1.00;;;;;;5021656;28;20662;-86
2024/03/25 11:25:20;;;;;;;20.27;2.30;;;13.00;1.00;;;;;;5003407;28;20170;-86
2024/03/25 11:27:47;;;;;;;15.18;1.83;;;13.40;1.00;;;;;;5020598;28;20171;-85
2024/03/25 11:30:14;;;;;;;15.30;3.38;;;13.50;1.00;;;;;;5001761;28;20170;-85
2024/03/25 11:32:53;;;;;;;14.90;1.83;;;13.40;1.00;;;;;;5004968;28;20194;-85
2024/03/25 11:35:19;;;;;;;13.30;1.80;;;13.60;99.90;;;;;;5018391;28;20185;-86
2024/03/25 11:37:45;;;;;;;13.27;1.93;;;13.20;99.90;;;;;;5017081;28;20405;-86
2024/03/25 11:40:14;;;;;;;19.30;1.60;;;12.90;99.90;;;;;;5015617;28;20512;-85
2024/03/25 11:42:41;;;;;;;14.30;1.50;;;13.00;99.90;;;;;;5015008;28;20178;-86
2024/03/25 11:45:07;;;;;;;15.77;2.08;;;12.90;99.90;;;;;;5015687;28;20402;-86
2024/03/25 11:47:33;;;;;;;14.77;2.10;;;13.10;99.90;;;;;;5016425;28;20166;-85
2024/03/25 11:49:59;;;;;;;13.40;1.80;;;13.40;99.90;;;;;;5018001;28;20431;-85
2024/03/25 11:52:30;;;;;;;18.10;1.90;;;13.40;99.90;;;;;;5019035;28;20189;-85
2024/03/25 11:54:56;;;;;;;21.50;1.97;;;13.30;99.90;;;;;;4997345;28;20394;-85
2024/03/25 11:57:22;;;;;;;14.83;1.50;;;13.40;99.90;;;;;;4999263;28;20405;-85
2024/03/25 11:59:49;;;;;;;13.73;1.87;;;13.40;99.90;;;;;;5000639;28;20828;-87
2024/03/25 12:02:18;;;;;;;12.87;1.43;;;13.60;99.90;;;;;;5000041;28;20421;-87
2024/03/25 12:04:44;;;;;;;17.90;2.43;;;13.30;99.90;;;;;;5015808;28;20739;-85
2024/03/25 12:07:13;;;;;;;19.10;1.87;;;13.30;99.90;;;;;;4998458;28;20402;-85
2024/03/25 12:12:24;;;;;;;16.30;2.40;;;13.30;99.90;;;;;;5018106;28;20475;-85
2024/03/25 12:14:52;;;;;;;12.80;1.43;;;13.50;99.90;;;;;;5018167;28;20398;-85
2024/03/25 12:17:18;;;;;;;18.70;1.67;;;13.70;99.90;;;;;;5016659;28;20918;-85
2024/03/25 12:19:44;;;;;;;13.30;1.57;;;13.70;99.90;;;;;;5014089;28;20449;-85
2024/03/25 12:22:10;;;;;;;12.53;1.37;;;14.00;99.90;;;;;;5017278;28;20421;-85
2024/03/25 12:24:36;;;;;;;13.47;2.17;;;14.10;99.90;;;;;;5015923;28;20495;-87
2024/03/25 12:27:04;;;;;;;13.73;1.83;;;14.10;99.90;;;;;;5016641;28;20448;-85
2024/03/25 12:29:30;;;;;;;14.40;1.63;;;14.00;99.90;;;;;;4999007;28;20416;-85
2024/03/25 12:32:01;;;;;;;15.13;1.87;;;14.20;99.90;;;;;;5002151;28;20810;-85
2024/03/25 12:34:27;;;;;;;12.47;1.20;;;14.10;99.90;;;;;;5003176;28;20398;-85
2024/03/25 12:37:06;;;;;;;14.40;1.50;;;13.90;99.90;;;;;;5022813;28;20419;-85
2024/03/25 12:39:32;;;;;;;16.80;1.90;;;13.80;99.90;;;;;;4999906;28;20187;-85
2024/03/25 12:41:58;;;;;;;14.80;1.30;;;14.00;99.90;;;;;;5017404;28;20479;-85
2024/03/25 12:44:23;;;;;;;13.87;1.80;;;14.20;99.90;;;;;;5013919;28;20177;-85
2024/03/25 12:46:57;;;;;;;13.40;1.80;;;14.50;99.90;;;;;;5014697;28;20201;-85
2024/03/25 12:49:23;;;;;;;11.90;1.37;;;15.00;99.90;;;;;;5016826;28;20151;-84
2024/03/25 12:51:49;;;;;;;14.00;1.20;;;15.40;99.90;;;;;;5016080;28;20425;-85
2024/03/25 12:54:15;;;;;;;15.90;2.33;;;15.50;99.90;;;;;;5014703;28;20228;-84